Time;durP1;ratioP1;P1;durP2;ratioP2;P2;SDS_P1;SDS_P2;PMS_P1;PMS_P2;Temp;Humidity;BMP_temperature;BMP_pressure;BME280_temperature;BME280_humidity;BME280_pressure;Samples;Min_cycle;Max_cycle;Signal;HPM_P1;HPM_P2
2021/05/17 00:00:34;;;;;;;;;;;9.00;94.30;;;;;;5074716;28;20292;-70
2021/05/17 00:03:00;;;;;;;;;;;8.90;94.20;;;;;;5071069;28;19916;-70
2021/05/17 00:05:26;;;;;;;;;;;8.90;94.00;;;;;;5063845;28;19920;-71
2021/05/17 00:07:52;;;;;;;;;;;8.80;94.10;;;;;;5064204;28;19912;-69
2021/05/17 00:10:18;;;;;;;;;;;8.80;94.20;;;;;;5070945;28;20402;-70
2021/05/17 00:12:44;;;;;;;;;;;8.70;94.40;;;;;;5072431;28;19913;-70
2021/05/17 00:15:14;;;;;;;;;;;8.70;94.20;;;;;;5077602;28;20336;-70
2021/05/17 00:17:40;;;;;;;;;;;8.70;94.20;;;;;;5068683;28;20448;-70
2021/05/17 00:20:07;;;;;;;;;;;8.70;94.20;;;;;;5071869;28;19912;-70
2021/05/17 00:22:32;;;;;;;;;;;8.70;93.80;;;;;;5069771;28;20221;-70
2021/05/17 00:24:59;;;;;;;;;;;8.70;93.70;;;;;;5070402;28;19920;-70
2021/05/17 00:27:24;;;;;;;;;;;8.70;93.80;;;;;;5069787;28;19931;-69
2021/05/17 00:29:50;;;;;;;;;;;8.70;93.30;;;;;;5051891;28;20229;-70
2021/05/17 00:32:16;;;;;;;;;;;8.70;93.30;;;;;;5068571;28;19916;-70
2021/05/17 00:34:41;;;;;;;;;;;8.60;93.70;;;;;;5069865;28;19913;-70
2021/05/17 00:37:07;;;;;;;;;;;8.60;93.70;;;;;;5070780;28;19996;-69
2021/05/17 00:39:34;;;;;;;;;;;8.50;94.10;;;;;;5069578;28;19912;-69
2021/05/17 00:41:59;;;;;;;;;;;8.40;94.40;;;;;;5069763;28;19923;-71
2021/05/17 00:44:25;;;;;;;;;;;8.30;94.70;;;;;;5069354;28;19917;-70
2021/05/17 00:46:52;;;;;;;;;;;8.40;94.80;;;;;;5052012;28;20332;-69
2021/05/17 00:49:17;;;;;;;;;;;8.40;94.90;;;;;;5068874;28;19924;-70
2021/05/17 00:51:43;;;;;;;;;;;8.40;94.80;;;;;;5069426;28;19927;-70
2021/05/17 00:54:09;;;;;;;;;;;8.40;94.80;;;;;;5070091;28;19916;-70
2021/05/17 00:56:34;;;;;;;;;;;8.30;94.90;;;;;;5068029;28;19920;-70
2021/05/17 00:59:00;;;;;;;;;;;8.20;94.90;;;;;;5069018;28;20355;-69
2021/05/17 01:01:26;;;;;;;;;;;8.10;95.10;;;;;;5072530;28;19916;-70
2021/05/17 01:03:51;;;;;;;;;;;8.10;95.40;;;;;;5081038;28;20305;-70
2021/05/17 01:06:17;;;;;;;;;;;8.10;95.30;;;;;;5081427;28;19990;-69
2021/05/17 01:09:04;;;;;;;;;;;8.20;94.90;;;;;;5075213;28;20382;-70
2021/05/17 01:11:30;;;;;;;;;;;8.10;95.10;;;;;;5069252;28;20194;-70
2021/05/17 01:13:57;;;;;;;;;;;8.10;95.20;;;;;;5069400;28;19928;-70
2021/05/17 01:16:23;;;;;;;;;;;8.20;94.80;;;;;;5072661;28;19962;-70
2021/05/17 01:18:50;;;;;;;;;;;8.30;94.50;;;;;;5072906;28;20221;-71
2021/05/17 01:21:17;;;;;;;;;;;8.60;93.60;;;;;;5072511;28;19918;-70
2021/05/17 01:23:50;;;;;;;;;;;8.60;93.20;;;;;;5056352;28;19917;-70
2021/05/17 01:26:16;;;;;;;;;;;8.60;93.00;;;;;;5073565;28;20046;-70
2021/05/17 01:28:43;;;;;;;;;;;8.50;93.30;;;;;;5072150;28;19999;-70
2021/05/17 01:31:09;;;;;;;;;;;8.40;92.60;;;;;;5072468;28;21168;-69
2021/05/17 01:33:39;;;;;;;;;;;8.40;92.40;;;;;;5072359;28;20329;-70
2021/05/17 01:36:05;;;;;;;;;;;8.30;92.40;;;;;;5072296;28;19912;-69
2021/05/17 01:38:30;;;;;;;;;;;8.20;92.80;;;;;;5073159;28;19917;-70
2021/05/17 01:40:57;;;;;;;;;;;8.20;92.80;;;;;;5073084;28;19913;-70
2021/05/17 01:43:25;;;;;;;;;;;8.20;92.90;;;;;;5073132;28;19932;-70
2021/05/17 01:45:51;;;;;;;;;;;8.10;92.90;;;;;;5072104;28;19912;-70
2021/05/17 01:48:24;;;;;;;;;;;8.20;92.90;;;;;;5071262;28;20312;-71
2021/05/17 01:50:50;;;;;;;;;;;8.20;93.00;;;;;;5071830;28;19924;-70
2021/05/17 01:53:17;;;;;;;;;;;8.20;93.00;;;;;;5071281;28;20061;-70
2021/05/17 01:55:42;;;;;;;;;;;8.30;93.00;;;;;;5073070;28;19920;-70
2021/05/17 01:58:22;;;;;;;;;;;8.50;92.70;;;;;;5071773;28;20023;-69
2021/05/17 02:00:49;;;;;;;;;;;8.60;92.40;;;;;;5054911;28;19966;-70
2021/05/17 02:03:14;;;;;;;;;;;8.70;92.30;;;;;;5071200;28;19932;-70
2021/05/17 02:05:41;;;;;;;;;;;8.70;92.20;;;;;;5072708;28;19967;-70
2021/05/17 02:08:12;;;;;;;;;;;8.70;92.00;;;;;;5054447;28;19928;-69
2021/05/17 02:10:38;;;;;;;;;;;8.80;92.00;;;;;;5072136;28;20332;-69
2021/05/17 02:13:04;;;;;;;;;;;8.80;92.10;;;;;;5071939;28;19951;-69
2021/05/17 02:15:30;;;;;;;;;;;8.80;92.30;;;;;;5072098;28;19921;-69
2021/05/17 02:18:06;;;;;;;;;;;8.80;92.70;;;;;;5053540;28;19912;-71
2021/05/17 02:20:33;;;;;;;;;;;8.80;92.80;;;;;;5073080;28;20225;-70
2021/05/17 02:23:00;;;;;;;;;;;8.70;93.30;;;;;;5071930;28;19913;-71
2021/05/17 02:25:26;;;;;;;;;;;8.60;93.70;;;;;;5072914;28;19920;-71
2021/05/17 02:27:51;;;;;;;;;;;8.50;94.00;;;;;;5071643;28;19943;-71
2021/05/17 02:30:17;;;;;;;;;;;8.40;94.40;;;;;;5072547;28;19935;-71
2021/05/17 02:32:43;;;;;;;;;;;8.40;94.60;;;;;;5070640;28;20305;-72
2021/05/17 02:35:09;;;;;;;;;;;8.30;94.80;;;;;;5071183;28;19912;-71
2021/05/17 02:37:35;;;;;;;;;;;8.20;94.80;;;;;;5071268;28;19940;-70
2021/05/17 02:40:01;;;;;;;;;;;8.20;95.10;;;;;;5072250;28;19943;-70
2021/05/17 02:42:29;;;;;;;;;;;8.20;94.90;;;;;;5071780;28;20002;-70
2021/05/17 02:44:55;;;;;;;;;;;8.20;95.10;;;;;;5071297;28;20456;-69
2021/05/17 02:47:21;;;;;;;;;;;8.20;95.20;;;;;;5070091;28;19916;-69
2021/05/17 02:49:48;;;;;;;;;;;8.30;95.20;;;;;;5069313;28;19961;-70
2021/05/17 02:52:13;;;;;;;;;;;8.40;95.00;;;;;;5071498;28;19927;-70
2021/05/17 02:54:42;;;;;;;;;;;8.40;94.80;;;;;;5071709;28;19917;-69
2021/05/17 02:57:13;;;;;;;;;;;8.50;94.70;;;;;;5071797;28;19938;-69
2021/05/17 03:00:01;;;;;;;;;;;8.50;94.80;;;;;;5052815;28;19927;-70
2021/05/17 03:02:29;;;;;;;;;;;8.50;94.60;;;;;;5070389;28;20349;-70
2021/05/17 03:04:56;;;;;;;;;;;8.40;94.50;;;;;;5071164;28;19921;-70
2021/05/17 03:07:23;;;;;;;;;;;8.40;94.50;;;;;;5071827;28;19959;-71
2021/05/17 03:09:49;;;;;;;;;;;8.40;94.60;;;;;;5054783;28;20019;-70
2021/05/17 03:12:16;;;;;;;;;;;8.30;94.70;;;;;;5071663;28;20327;-70
2021/05/17 03:14:42;;;;;;;;;;;8.30;95.10;;;;;;5070542;28;19920;-71
2021/05/17 03:17:09;;;;;;;;;;;8.30;95.20;;;;;;5069398;28;19924;-71
2021/05/17 03:19:36;;;;;;;;;;;8.20;95.30;;;;;;5072506;28;19912;-70
2021/05/17 03:22:01;;;;;;;;;;;8.20;95.30;;;;;;5081905;28;20099;-70
2021/05/17 03:24:31;;;;;;;;;;;8.20;95.40;;;;;;5071274;28;20007;-70
2021/05/17 03:26:57;;;;;;;;;;;8.20;95.50;;;;;;5052594;28;19920;-69
2021/05/17 03:29:23;;;;;;;;;;;8.20;95.60;;;;;;5071023;28;20187;-71
2021/05/17 03:31:48;;;;;;;;;;;8.10;95.70;;;;;;5072198;28;19927;-70
2021/05/17 03:34:14;;;;;;;;;;;8.20;95.30;;;;;;5069363;28;20419;-69
2021/05/17 03:36:40;;;;;;;;;;;8.20;94.90;;;;;;5071192;28;19998;-70
2021/05/17 03:39:05;;;;;;;;;;;8.30;94.70;;;;;;5052145;28;19916;-70
2021/05/17 03:41:31;;;;;;;;;;;8.30;94.80;;;;;;5054584;28;19919;-70
2021/05/17 03:43:56;;;;;;;;;;;8.40;94.30;;;;;;5069646;28;19912;-69
2021/05/17 03:46:22;;;;;;;;;;;8.50;94.10;;;;;;5069446;28;19916;-70
2021/05/17 03:48:47;;;;;;;;;;;8.40;94.30;;;;;;5070441;28;19913;-69
2021/05/17 03:51:13;;;;;;;;;;;8.40;94.40;;;;;;5069793;28;19939;-70
2021/05/17 03:53:39;;;;;;;;;;;8.30;94.50;;;;;;5070913;28;19943;-70
2021/05/17 03:56:05;;;;;;;;;;;8.20;94.70;;;;;;5071004;28;19927;-70
2021/05/17 03:58:30;;;;;;;;;;;8.20;94.90;;;;;;5068917;28;19924;-70
2021/05/17 04:01:00;;;;;;;;;;;8.10;95.10;;;;;;5071076;28;19913;-70
2021/05/17 04:03:26;;;;;;;;;;;8.10;95.20;;;;;;5070801;28;19917;-70
2021/05/17 04:13:53;;;;;;;;;;;7.90;95.70;;;;;;5069731;28;20035;-71
2021/05/17 04:16:18;;;;;;;;;;;7.70;96.00;;;;;;5070474;28;19920;-70
2021/05/17 04:18:45;;;;;;;;;;;7.60;95.80;;;;;;5068758;28;20067;-70
2021/05/17 04:21:11;;;;;;;;;;;7.50;95.90;;;;;;5068715;28;19921;-70
2021/05/17 04:23:38;;;;;;;;;;;7.50;96.00;;;;;;5072721;28;20155;-71
2021/05/17 04:26:04;;;;;;;;;;;7.50;96.00;;;;;;5072390;28;20329;-71
2021/05/17 04:28:30;;;;;;;;;;;7.50;96.10;;;;;;5052789;28;20304;-70
2021/05/17 04:30:56;;;;;;;;;;;7.50;96.10;;;;;;5072124;28;19916;-71
2021/05/17 04:33:22;;;;;;;;;;;7.40;95.80;;;;;;5072818;28;19916;-70
2021/05/17 04:35:47;;;;;;;;;;;7.40;96.30;;;;;;5076574;28;20327;-70
2021/05/17 04:38:13;;;;;;;;;;;7.40;96.20;;;;;;5076301;28;19973;-70
2021/05/17 04:40:39;;;;;;;;;;;7.40;97.00;;;;;;5079732;28;19916;-70
2021/05/17 04:43:04;;;;;;;;;;;7.40;96.80;;;;;;5079172;28;20244;-70
2021/05/17 04:45:33;;;;;;;;;;;7.30;96.20;;;;;;5057762;28;20305;-70
2021/05/17 04:47:59;;;;;;;;;;;7.30;96.40;;;;;;5066440;28;19932;-69
2021/05/17 04:50:24;;;;;;;;;;;7.30;96.20;;;;;;5075223;28;20268;-71
2021/05/17 04:52:50;;;;;;;;;;;7.40;96.20;;;;;;5083072;28;19913;-70
2021/05/17 04:55:16;;;;;;;;;;;7.50;96.20;;;;;;5075532;28;19912;-70
2021/05/17 04:57:43;;;;;;;;;;;7.50;96.50;;;;;;5076980;28;19947;-69
2021/05/17 05:00:09;;;;;;;;;;;7.60;96.00;;;;;;5071785;28;19919;-70
2021/05/17 05:02:35;;;;;;;;;;;7.70;95.80;;;;;;5075073;28;19939;-69
2021/05/17 05:05:01;;;;;;;;;;;7.60;95.90;;;;;;5076525;28;19912;-69
2021/05/17 05:07:26;;;;;;;;;;;7.50;96.00;;;;;;5078263;28;19919;-69
2021/05/17 05:09:55;;;;;;;;;;;7.50;96.00;;;;;;5079602;28;19916;-68
2021/05/17 05:12:21;;;;;;;;;;;7.50;96.40;;;;;;5078376;28;19913;-71
2021/05/17 05:14:47;;;;;;;;;;;7.60;96.40;;;;;;5089958;28;19916;-72
2021/05/17 05:17:12;;;;;;;;;;;7.70;96.30;;;;;;5077478;28;19912;-71
2021/05/17 05:19:42;;;;;;;;;;;7.80;96.40;;;;;;5078590;28;19908;-71
2021/05/17 05:22:08;;;;;;;;;;;7.80;96.30;;;;;;5078760;28;19912;-71
2021/05/17 05:24:33;;;;;;;;;;;7.90;96.30;;;;;;5078780;28;19967;-71
2021/05/17 05:32:33;;;;;;;;;;;7.90;96.00;;;;;;5078124;28;19912;-70
2021/05/17 05:34:38;;;;;;;;;;;8.00;96.10;;;;;;5071993;28;19917;-70
2021/05/17 05:37:05;;;;;;;;;;;8.10;96.10;;;;;;5078283;28;19935;-70
2021/05/17 05:39:33;;;;;;;;;;;8.20;96.00;;;;;;5078344;28;19913;-70
2021/05/17 05:42:02;;;;;;;;;;;8.20;96.00;;;;;;5077758;28;19920;-72
2021/05/17 05:44:27;;;;;;;;;;;8.30;96.10;;;;;;5078453;28;19942;-70
2021/05/17 05:46:53;;;;;;;;;;;8.30;95.80;;;;;;5077880;28;19935;-69
2021/05/17 05:49:18;;;;;;;;;;;8.30;95.90;;;;;;5076940;28;19937;-70
2021/05/17 05:51:53;;;;;;;;;;;8.50;95.60;;;;;;5078688;28;20351;-70
2021/05/17 05:54:19;;;;;;;;;;;8.60;95.30;;;;;;5077345;28;19939;-70
2021/05/17 05:56:44;;;;;;;;;;;8.60;95.20;;;;;;5078116;28;19909;-71
2021/05/17 05:59:10;;;;;;;;;;;8.60;95.10;;;;;;5078143;28;19931;-71
2021/05/17 06:01:35;;;;;;;;;;;8.80;95.30;;;;;;5090378;28;19916;-70
2021/05/17 06:04:04;;;;;;;;;;;9.10;94.50;;;;;;5074904;28;19916;-70
2021/05/17 06:06:35;;;;;;;;;;;9.30;93.60;;;;;;5080292;28;19995;-71
2021/05/17 06:09:01;;;;;;;;;;;9.60;94.10;;;;;;5078026;28;19948;-70
2021/05/17 06:11:29;;;;;;;;;;;9.70;92.90;;;;;;5086949;28;20387;-70
2021/05/17 06:13:55;;;;;;;;;;;9.80;93.20;;;;;;5098176;28;19949;-70
2021/05/17 06:16:20;;;;;;;;;;;10.20;92.40;;;;;;5097851;28;19924;-70
2021/05/17 06:18:46;;;;;;;;;;;10.20;90.80;;;;;;5096621;28;20221;-71
2021/05/17 06:21:12;;;;;;;;;;;10.00;91.60;;;;;;5089916;28;19945;-70
2021/05/17 06:23:37;;;;;;;;;;;10.30;91.50;;;;;;5091369;28;19928;-71
2021/05/17 06:26:03;;;;;;;;;;;10.10;90.90;;;;;;5076667;28;19920;-70
2021/05/17 06:28:28;;;;;;;;;;;10.00;90.90;;;;;;5077370;28;19916;-71
2021/05/17 06:31:03;;;;;;;;;;;9.90;90.90;;;;;;5077428;28;19916;-70
2021/05/17 06:33:29;;;;;;;;;;;9.90;90.90;;;;;;5076205;28;19912;-72
2021/05/17 06:35:57;;;;;;;;;;;10.10;90.80;;;;;;5078380;28;19912;-70
2021/05/17 06:38:23;;;;;;;;;;;10.00;90.60;;;;;;5077389;28;19927;-70
2021/05/17 06:40:48;;;;;;;;;;;10.20;90.50;;;;;;5059368;28;19971;-71
2021/05/17 06:43:15;;;;;;;;;;;10.30;89.80;;;;;;5077237;28;19912;-72
2021/05/17 06:45:41;;;;;;;;;;;10.50;89.50;;;;;;5077184;28;19912;-72
2021/05/17 06:48:07;;;;;;;;;;;10.80;89.50;;;;;;5076059;28;20003;-70
2021/05/17 06:50:33;;;;;;;;;;;10.80;88.70;;;;;;5076019;28;19921;-70
2021/05/17 06:52:58;;;;;;;;;;;10.70;88.50;;;;;;5077126;28;19950;-69
2021/05/17 06:55:30;;;;;;;;;;;10.30;89.60;;;;;;5076709;28;20225;-70
2021/05/17 07:00:32;;;;;;;;;;;10.20;90.60;;;;;;5076775;28;19913;-70
2021/05/17 07:02:58;;;;;;;;;;;10.20;90.10;;;;;;5075581;28;20263;-70
2021/05/17 07:05:26;;;;;;;;;;;10.40;90.20;;;;;;5076536;28;19934;-70
2021/05/17 07:13:03;;;;;;;;;;;10.30;89.10;;;;;;5071663;28;19920;-70
2021/05/17 07:15:31;;;;;;;;;;;10.10;89.50;;;;;;5058753;28;19921;-70
2021/05/17 07:17:57;;;;;;;;;;;10.00;90.50;;;;;;5074565;28;20221;-70
2021/05/17 07:20:34;;;;;;;;;;;9.80;91.00;;;;;;5075543;28;19916;-70
2021/05/17 07:25:44;;;;;;;;;;;9.80;91.80;;;;;;5076245;28;19928;-70
2021/05/17 07:28:10;;;;;;;;;;;9.40;93.40;;;;;;5076488;28;19908;-70
2021/05/17 07:30:36;;;;;;;;;;;9.20;94.40;;;;;;5075786;28;19954;-71
2021/05/17 07:33:02;;;;;;;;;;;8.90;95.20;;;;;;5075141;28;20411;-71
2021/05/17 07:35:28;;;;;;;;;;;8.80;95.10;;;;;;5076180;28;19939;-71
2021/05/17 07:37:53;;;;;;;;;;;8.80;95.90;;;;;;5076020;28;20323;-71
2021/05/17 07:40:19;;;;;;;;;;;8.80;95.50;;;;;;5076012;28;19912;-70
2021/05/17 07:42:44;;;;;;;;;;;9.00;95.10;;;;;;5076363;28;19912;-71
2021/05/17 07:45:10;;;;;;;;;;;9.30;95.30;;;;;;5075865;28;19944;-70
2021/05/17 07:47:36;;;;;;;;;;;9.40;94.80;;;;;;5074993;28;19909;-70
2021/05/17 07:50:04;;;;;;;;;;;10.10;93.30;;;;;;5075173;28;19920;-71
2021/05/17 07:52:30;;;;;;;;;;;10.20;93.30;;;;;;5073776;28;19916;-71
2021/05/17 07:54:55;;;;;;;;;;;10.20;93.90;;;;;;5092549;28;20260;-71
2021/05/17 07:57:21;;;;;;;;;;;10.80;92.40;;;;;;5076024;28;19908;-71
2021/05/17 07:59:46;;;;;;;;;;;11.60;89.90;;;;;;5057999;28;20007;-71
2021/05/17 08:02:19;;;;;;;;;;;12.20;87.70;;;;;;5074903;28;19985;-71
2021/05/17 08:04:45;;;;;;;;;;;13.30;84.60;;;;;;5075632;28;19912;-70
2021/05/17 08:07:10;;;;;;;;;;;13.50;81.30;;;;;;5075555;28;20339;-72
2021/05/17 08:09:36;;;;;;;;;;;13.30;82.30;;;;;;5075709;28;20183;-72
2021/05/17 08:12:02;;;;;;;;;;;12.80;83.30;;;;;;5087627;28;19935;-72
2021/05/17 08:14:27;;;;;;;;;;;13.00;82.60;;;;;;5095857;28;19931;-72
2021/05/17 08:16:54;;;;;;;;;;;13.10;80.50;;;;;;5082691;28;19948;-72
2021/05/17 08:19:19;;;;;;;;;;;12.60;81.80;;;;;;5074403;28;19913;-73
2021/05/17 08:21:45;;;;;;;;;;;13.00;82.80;;;;;;5074682;28;19919;-72
2021/05/17 08:24:11;;;;;;;;;;;12.60;82.90;;;;;;5075112;28;20019;-72
2021/05/17 08:26:37;;;;;;;;;;;11.70;85.40;;;;;;5075425;28;19920;-73
2021/05/17 08:29:03;;;;;;;;;;;11.40;85.40;;;;;;5063581;28;19913;-72
2021/05/17 08:31:32;;;;;;;;;;;11.20;85.80;;;;;;5054578;28;19928;-72
2021/05/17 08:33:57;;;;;;;;;;;11.20;86.80;;;;;;5074194;28;19916;-71
2021/05/17 08:36:23;;;;;;;;;;;11.10;87.00;;;;;;5079364;28;19912;-71
2021/05/17 08:38:48;;;;;;;;;;;11.00;88.10;;;;;;5079549;28;19909;-72
2021/05/17 08:41:14;;;;;;;;;;;10.80;87.80;;;;;;5067629;28;20290;-71
2021/05/17 08:43:40;;;;;;;;;;;10.40;90.10;;;;;;5079615;28;19923;-72
2021/05/17 08:46:09;;;;;;;;;;;10.20;89.70;;;;;;5079278;28;19921;-71
2021/05/17 08:48:47;;;;;;;;;;;10.10;90.90;;;;;;5078282;28;19916;-70
2021/05/17 08:51:16;;;;;;;;;;;10.50;90.60;;;;;;5083060;28;19916;-71
2021/05/17 08:53:44;;;;;;;;;;;10.80;90.60;;;;;;5099724;28;19922;-70
2021/05/17 08:56:10;;;;;;;;;;;10.90;89.20;;;;;;5090073;28;19941;-70
2021/05/17 08:58:35;;;;;;;;;;;10.80;89.80;;;;;;5078822;28;19913;-72
2021/05/17 09:01:03;;;;;;;;;;;10.60;91.20;;;;;;5093071;28;19916;-71
2021/05/17 09:03:29;;;;;;;;;;;10.10;91.80;;;;;;5077458;28;20248;-71
2021/05/17 09:05:54;;;;;;;;;;;9.80;93.90;;;;;;5079093;28;19916;-72
2021/05/17 09:08:23;;;;;;;;;;;9.60;94.80;;;;;;5078951;28;20208;-71
2021/05/17 09:10:49;;;;;;;;;;;9.30;94.80;;;;;;5078817;28;19995;-71
2021/05/17 09:13:15;;;;;;;;;;;9.20;95.60;;;;;;5078543;28;19943;-72
2021/05/17 09:15:42;;;;;;;;;;;9.00;95.40;;;;;;5091757;28;19926;-71
2021/05/17 09:18:13;;;;;;;;;;;8.90;95.20;;;;;;5097715;28;20292;-71
2021/05/17 09:20:41;;;;;;;;;;;9.10;95.50;;;;;;5098985;28;19948;-70
2021/05/17 09:23:11;;;;;;;;;;;9.50;95.40;;;;;;5099237;28;19912;-71
2021/05/17 09:25:37;;;;;;;;;;;9.90;95.80;;;;;;5099013;28;19926;-71
2021/05/17 09:28:04;;;;;;;;;;;10.00;95.80;;;;;;5107842;28;19912;-71
2021/05/17 09:30:49;;;;;;;;;;;10.10;95.50;;;;;;5096696;28;19924;-72
2021/05/17 09:33:18;;;;;;;;;;;10.60;95.30;;;;;;5084967;28;19912;-71
2021/05/17 09:35:44;;;;;;;;;;;11.00;94.60;;;;;;5098992;28;19915;-71
2021/05/17 09:38:25;;;;;;;;;;;11.40;96.50;;;;;;5098419;28;19913;-71
2021/05/17 09:41:02;;;;;;;;;;;11.80;93.30;;;;;;5098071;28;19912;-71
2021/05/17 09:43:28;;;;;;;;;;;12.00;94.00;;;;;;5099027;28;20267;-71
2021/05/17 09:45:55;;;;;;;;;;;12.30;92.00;;;;;;5098372;28;19912;-70
2021/05/17 09:48:21;;;;;;;;;;;12.50;90.10;;;;;;5102865;28;19930;-70
2021/05/17 09:51:08;;;;;;;;;;;12.60;89.70;;;;;;5091711;28;19927;-71
2021/05/17 09:53:35;;;;;;;;;;;12.50;89.40;;;;;;5118406;28;19929;-71
2021/05/17 09:56:12;;;;;;;;;;;12.70;86.20;;;;;;5098380;28;19987;-71
2021/05/17 09:58:37;;;;;;;;;;;12.10;88.60;;;;;;5104438;28;19953;-71
2021/05/17 10:01:07;;;;;;;;;;;11.30;89.70;;;;;;5098225;28;20240;-71
2021/05/17 10:03:34;;;;;;;;;;;10.70;92.60;;;;;;5096918;28;19919;-72
2021/05/17 10:05:59;;;;;;;;;;;10.40;93.50;;;;;;5097879;28;19930;-71
2021/05/17 10:08:25;;;;;;;;;;;10.50;93.10;;;;;;5098572;28;20003;-72
2021/05/17 10:10:54;;;;;;;;;;;10.70;93.20;;;;;;5079885;28;20003;-71
2021/05/17 10:13:19;;;;;;;;;;;10.80;93.60;;;;;;5098015;28;19915;-71
2021/05/17 10:15:47;;;;;;;;;;;10.80;94.00;;;;;;5097694;28;19920;-72
2021/05/17 10:18:13;;;;;;;;;;;10.60;94.40;;;;;;5097016;28;19908;-72
2021/05/17 10:20:40;;;;;;;;;;;10.30;94.60;;;;;;5085047;28;19927;-72
2021/05/17 10:23:06;;;;;;;;;;;10.10;94.60;;;;;;5077197;28;19934;-72
2021/05/17 10:25:33;;;;;;;;;;;9.90;95.20;;;;;;5088275;28;19912;-72
2021/05/17 10:28:00;;;;;;;;;;;9.50;95.30;;;;;;5084191;28;19912;-73
2021/05/17 10:30:34;;;;;;;;;;;9.20;96.00;;;;;;5086725;28;19949;-71
2021/05/17 10:33:10;;;;;;;;;;;9.20;96.40;;;;;;5076848;28;20003;-72
2021/05/17 10:35:46;;;;;;;;;;;9.40;95.90;;;;;;5087561;28;20004;-72
2021/05/17 10:38:16;;;;;;;;;;;10.70;95.70;;;;;;5097786;28;19995;-72
2021/05/17 10:40:45;;;;;;;;;;;12.00;95.80;;;;;;5086486;28;20362;-72
2021/05/17 10:43:16;;;;;;;;;;;12.20;93.40;;;;;;5073607;28;20236;-71
2021/05/17 10:48:18;;;;;;;;;;;12.50;93.10;;;;;;5080239;28;19919;-72
2021/05/17 10:50:53;;;;;;;;;;;12.70;91.60;;;;;;5072624;28;19916;-71
2021/05/17 10:53:37;;;;;;;;;;;13.40;91.70;;;;;;5071820;28;19917;-71
2021/05/17 10:56:02;;;;;;;;;;;13.20;87.10;;;;;;5070871;28;20255;-71
2021/05/17 11:01:47;;;;;;;;;;;12.00;90.10;;;;;;5055202;28;19912;-71
2021/05/17 11:04:42;;;;;;;;;;;11.90;89.80;;;;;;5068389;28;19912;-72
2021/05/17 11:07:10;;;;;;;;;;;11.60;89.40;;;;;;5065629;28;19912;-72
2021/05/17 11:09:39;;;;;;;;;;;11.70;88.70;;;;;;5077360;28;19970;-72
2021/05/17 11:12:17;;;;;;;;;;;12.40;91.00;;;;;;5077475;28;19920;-72
2021/05/17 11:15:00;;;;;;;;;;;13.00;86.10;;;;;;5081289;28;19920;-72
2021/05/17 11:17:26;;;;;;;;;;;13.00;87.30;;;;;;5085301;28;20227;-72
2021/05/17 11:19:51;;;;;;;;;;;12.60;84.60;;;;;;5088784;28;19912;-71
2021/05/17 11:22:17;;;;;;;;;;;12.50;86.30;;;;;;5095456;28;19912;-71
2021/05/17 11:24:46;;;;;;;;;;;13.20;85.20;;;;;;5095616;28;20023;-71
2021/05/17 11:27:11;;;;;;;;;;;13.50;83.30;;;;;;5095307;28;19959;-72
2021/05/17 11:29:38;;;;;;;;;;;13.00;84.40;;;;;;5095975;28;19990;-71
2021/05/17 11:32:07;;;;;;;;;;;12.60;84.20;;;;;;5091674;28;20475;-71
2021/05/17 11:34:33;;;;;;;;;;;12.20;84.50;;;;;;5095616;28;19912;-71
2021/05/17 11:37:12;;;;;;;;;;;11.90;85.80;;;;;;5095344;28;19919;-71
2021/05/17 11:39:38;;;;;;;;;;;11.50;89.70;;;;;;5081997;28;20007;-72
2021/05/17 11:42:10;;;;;;;;;;;11.60;90.10;;;;;;5094460;28;19986;-71
2021/05/17 11:47:14;;;;;;;;;;;13.10;86.60;;;;;;5097478;28;19934;-71
2021/05/17 11:54:52;;;;;;;;;;;12.90;82.00;;;;;;5095175;22;19967;-70
2021/05/17 11:57:26;;;;;;;;;;;12.10;84.20;;;;;;5089095;28;19968;-71
2021/05/17 11:59:52;;;;;;;;;;;11.70;86.30;;;;;;5090158;28;19912;-68
2021/05/17 12:02:18;;;;;;;;;;;11.70;87.90;;;;;;5090336;28;19916;-69
2021/05/17 12:04:47;;;;;;;;;;;12.00;88.00;;;;;;5094736;28;19954;-71
2021/05/17 12:07:14;;;;;;;;;;;12.60;84.10;;;;;;5092191;28;19938;-70
2021/05/17 12:09:41;;;;;;;;;;;13.00;84.00;;;;;;5115899;28;19908;-69
2021/05/17 12:12:07;;;;;;;;;;;13.10;82.90;;;;;;5116507;28;19919;-71
2021/05/17 12:14:34;;;;;;;;;;;13.20;82.80;;;;;;5114480;27;19922;-71
2021/05/17 12:17:10;;;;;;;;;;;13.10;82.40;;;;;;5113510;28;19947;-70
2021/05/17 12:19:36;;;;;;;;;;;12.90;83.20;;;;;;5114775;28;20238;-71
2021/05/17 12:22:03;;;;;;;;;;;12.60;82.90;;;;;;5098045;28;19927;-71
2021/05/17 12:24:29;;;;;;;;;;;12.40;83.80;;;;;;5114053;28;20670;-71
2021/05/17 12:26:58;;;;;;;;;;;12.40;83.90;;;;;;5114973;28;20014;-71
2021/05/17 12:29:24;;;;;;;;;;;12.60;83.70;;;;;;5115755;28;19934;-70
2021/05/17 12:31:49;;;;;;;;;;;12.80;83.50;;;;;;5115794;28;19912;-70
2021/05/17 12:34:15;;;;;;;;;;;13.10;83.80;;;;;;5111637;28;20360;-70
2021/05/17 12:36:42;;;;;;;;;;;13.30;82.40;;;;;;5112808;28;20252;-71
2021/05/17 12:39:20;;;;;;;;;;;13.20;82.30;;;;;;5096949;28;20547;-70
2021/05/17 12:41:47;;;;;;;;;;;13.40;81.00;;;;;;5114578;28;20010;-71
2021/05/17 12:44:27;;;;;;;;;;;13.70;79.60;;;;;;5113953;28;19911;-70
2021/05/17 12:47:05;;;;;;;;;;;13.30;80.70;;;;;;5114179;28;19965;-71
2021/05/17 12:49:51;;;;;;;;;;;12.90;82.60;;;;;;5114657;28;19965;-71
2021/05/17 12:52:24;;;;;;;;;;;13.30;82.80;;;;;;5112874;28;19998;-70
2021/05/17 12:55:11;;;;;;;;;;;14.60;78.60;;;;;;5091706;28;19942;-70
2021/05/17 12:57:56;;;;;;;;;;;14.90;77.00;;;;;;5100645;28;20323;-70
2021/05/17 13:00:38;;;;;;;;;;;15.30;75.10;;;;;;5090643;28;19954;-68
2021/05/17 13:03:10;;;;;;;;;;;15.50;73.70;;;;;;5103144;28;19963;-71
2021/05/17 13:05:47;;;;;;;;;;;15.40;72.80;;;;;;5093251;28;19998;-69
2021/05/17 13:08:13;;;;;;;;;;;15.90;73.80;;;;;;5103465;28;19915;-70
2021/05/17 13:10:58;;;;;;;;;;;15.90;72.90;;;;;;5112149;28;19973;-70
2021/05/17 13:13:44;;;;;;;;;;;15.30;72.20;;;;;;5113195;28;19912;-69
2021/05/17 13:16:23;;;;;;;;;;;15.00;73.40;;;;;;5111459;28;19916;-70
2021/05/17 13:25:28;;;;;;;;;;;13.90;78.10;;;;;;5106445;28;19970;-69
2021/05/17 13:30:30;;;;;;;;;;;13.10;79.60;;;;;;5129028;27;19926;-69
2021/05/17 13:32:56;;;;;;;;;;;13.20;81.00;;;;;;5124493;27;19916;-70
2021/05/17 13:35:22;;;;;;;;;;;13.70;80.50;;;;;;5125162;27;19911;-70
2021/05/17 13:37:49;;;;;;;;;;;13.80;79.80;;;;;;5108312;27;19955;-70
2021/05/17 13:40:15;;;;;;;;;;;13.90;77.50;;;;;;5135254;27;19918;-69
2021/05/17 13:42:41;;;;;;;;;;;13.80;77.40;;;;;;5127652;27;19911;-69
2021/05/17 13:45:08;;;;;;;;;;;13.50;79.00;;;;;;5115396;27;19912;-69
2021/05/17 13:47:33;;;;;;;;;;;13.60;80.60;;;;;;5103141;27;19911;-68
2021/05/17 13:49:59;;;;;;;;;;;13.10;83.80;;;;;;5125220;27;20361;-69
2021/05/17 13:52:25;;;;;;;;;;;12.10;87.30;;;;;;5121275;27;19915;-71
2021/05/17 13:54:53;;;;;;;;;;;10.90;91.30;;;;;;5114822;27;19928;-71
2021/05/17 13:57:18;;;;;;;;;;;10.30;93.30;;;;;;5120737;27;19915;-70
2021/05/17 13:59:44;;;;;;;;;;;10.10;93.80;;;;;;5128076;27;19923;-70
2021/05/17 14:02:10;;;;;;;;;;;9.90;95.00;;;;;;5108889;27;20219;-70
2021/05/17 14:04:35;;;;;;;;;;;9.90;95.60;;;;;;5123752;27;20218;-70
2021/05/17 14:07:01;;;;;;;;;;;9.80;96.10;;;;;;5119062;27;19918;-71
2021/05/17 14:09:27;;;;;;;;;;;9.80;96.40;;;;;;5100521;28;19977;-71
2021/05/17 14:11:55;;;;;;;;;;;9.90;95.10;;;;;;5119811;27;19965;-70
2021/05/17 14:14:21;;;;;;;;;;;10.00;94.80;;;;;;5127398;27;19931;-69
2021/05/17 14:16:51;;;;;;;;;;;10.20;94.90;;;;;;5106729;28;20311;-69
2021/05/17 14:19:17;;;;;;;;;;;10.40;94.50;;;;;;5114561;27;19927;-70
2021/05/17 14:21:43;;;;;;;;;;;10.80;93.50;;;;;;5129551;27;19912;-70
2021/05/17 14:24:08;;;;;;;;;;;11.80;93.00;;;;;;5115918;27;19993;-70
2021/05/17 14:26:34;;;;;;;;;;;13.10;90.50;;;;;;5114145;28;20292;-70
2021/05/17 14:29:00;;;;;;;;;;;13.70;86.20;;;;;;5114669;27;19911;-70
2021/05/17 14:31:26;;;;;;;;;;;13.30;86.30;;;;;;5112119;28;19920;-69
2021/05/17 14:33:52;;;;;;;;;;;13.20;87.00;;;;;;5108220;28;20313;-70
2021/05/17 14:36:17;;;;;;;;;;;13.00;86.00;;;;;;5116796;28;19919;-69
2021/05/17 14:38:43;;;;;;;;;;;12.70;87.80;;;;;;5105968;28;19908;-69
2021/05/17 14:41:09;;;;;;;;;;;12.50;88.60;;;;;;5117766;28;19990;-69
2021/05/17 14:43:34;;;;;;;;;;;12.40;89.00;;;;;;5111611;28;19915;-69
2021/05/17 14:46:00;;;;;;;;;;;12.40;88.70;;;;;;5102676;28;19947;-70
2021/05/17 14:48:28;;;;;;;;;;;12.30;88.40;;;;;;5113109;28;20479;-69
2021/05/17 14:50:54;;;;;;;;;;;12.80;87.80;;;;;;5103162;28;19969;-70
2021/05/17 14:53:20;;;;;;;;;;;13.30;85.10;;;;;;5109373;28;21547;-70
2021/05/17 14:55:46;;;;;;;;;;;13.20;83.70;;;;;;5097474;28;19908;-70
2021/05/17 14:58:12;;;;;;;;;;;12.60;86.80;;;;;;5102173;28;19977;-71
2021/05/17 15:00:38;;;;;;;;;;;12.20;87.30;;;;;;5112158;28;19951;-70
2021/05/17 15:03:04;;;;;;;;;;;12.90;86.10;;;;;;5108499;28;19919;-71
2021/05/17 15:05:30;;;;;;;;;;;12.80;85.80;;;;;;5104507;28;19943;-71
2021/05/17 15:07:56;;;;;;;;;;;12.70;85.80;;;;;;5095823;28;20243;-71
2021/05/17 15:10:24;;;;;;;;;;;12.30;86.70;;;;;;5111875;28;19927;-70
2021/05/17 15:12:51;;;;;;;;;;;11.70;90.40;;;;;;5077652;28;19912;-70